<?xml version="1.0" encoding="utf-8"?>
<gpx xmlns:xsi="http://www.w3.org/2001/XMLSchema-instance" xmlns:xsd="http://www.w3.org/2001/XMLSchema" version="1.1" creator="Shapelink.com" xmlns="http://www.topografix.com/GPX/1/1" xmlns:gpxtpx="http://www.garmin.com/xmlschemas/TrackPointExtension/v1">
  <metadata>
    <name>Cykling 4.84 km, 2013-10-12</name>
    <desc></desc>
    <author><name>Kim Kronberg</name></author> 
    <time>2013-10-12T10:55:59Z</time>
  </metadata>
  <trk>
    <name>Cykling 4.84 km, 2013-10-12</name>
    <trkseg>
      <trkpt lat="60.4781089" lon="22.2661608">
        <ele>66.4683</ele>
        <time>2013-10-12T10:55:59Z</time>
      </trkpt>
      <trkpt lat="60.4780921" lon="22.2661256">
        <ele>65.5071</ele>
        <time>2013-10-12T10:56:02Z</time>
      </trkpt>
      <trkpt lat="60.478105" lon="22.2659859">
        <ele>61.6617</ele>
        <time>2013-10-12T10:56:04Z</time>
      </trkpt>
      <trkpt lat="60.4782512" lon="22.2654443">
        <ele>54.4518</ele>
        <time>2013-10-12T10:56:12Z</time>
      </trkpt>
      <trkpt lat="60.4784221" lon="22.2647293">
        <ele>53.0098</ele>
        <time>2013-10-12T10:56:20Z</time>
      </trkpt>
      <trkpt lat="60.4785778" lon="22.264139">
        <ele>50.6066</ele>
        <time>2013-10-12T10:56:27Z</time>
      </trkpt>
      <trkpt lat="60.4787415" lon="22.2634448">
        <ele>49.6453</ele>
        <time>2013-10-12T10:56:35Z</time>
      </trkpt>
      <trkpt lat="60.4789013" lon="22.2627583">
        <ele>49.1646</ele>
        <time>2013-10-12T10:56:43Z</time>
      </trkpt>
      <trkpt lat="60.4790053" lon="22.262199">
        <ele>46.7612</ele>
        <time>2013-10-12T10:56:50Z</time>
      </trkpt>
      <trkpt lat="60.4790466" lon="22.2618738">
        <ele>42.4354</ele>
        <time>2013-10-12T10:56:54Z</time>
      </trkpt>
      <trkpt lat="60.4790644" lon="22.2617032">
        <ele>41.474</ele>
        <time>2013-10-12T10:56:56Z</time>
      </trkpt>
      <trkpt lat="60.4790769" lon="22.2614347">
        <ele>41.474</ele>
        <time>2013-10-12T10:56:59Z</time>
      </trkpt>
      <trkpt lat="60.4790907" lon="22.2611815">
        <ele>40.0321</ele>
        <time>2013-10-12T10:57:02Z</time>
      </trkpt>
      <trkpt lat="60.4792062" lon="22.2608676">
        <ele>38.5901</ele>
        <time>2013-10-12T10:57:07Z</time>
      </trkpt>
      <trkpt lat="60.4793485" lon="22.2606749">
        <ele>39.5513</ele>
        <time>2013-10-12T10:57:12Z</time>
      </trkpt>
      <trkpt lat="60.4794706" lon="22.2602094">
        <ele>44.8386</ele>
        <time>2013-10-12T10:57:18Z</time>
      </trkpt>
      <trkpt lat="60.4794952" lon="22.2600899">
        <ele>47.2418</ele>
        <time>2013-10-12T10:57:19Z</time>
      </trkpt>
      <trkpt lat="60.4795393" lon="22.2598917">
        <ele>50.6066</ele>
        <time>2013-10-12T10:57:21Z</time>
      </trkpt>
      <trkpt lat="60.479615" lon="22.2595058">
        <ele>55.8938</ele>
        <time>2013-10-12T10:57:25Z</time>
      </trkpt>
      <trkpt lat="60.4796616" lon="22.2591723">
        <ele>58.2971</ele>
        <time>2013-10-12T10:57:28Z</time>
      </trkpt>
      <trkpt lat="60.4796948" lon="22.2589453">
        <ele>62.1423</ele>
        <time>2013-10-12T10:57:30Z</time>
      </trkpt>
      <trkpt lat="60.4797541" lon="22.2587137">
        <ele>64.5457</ele>
        <time>2013-10-12T10:57:33Z</time>
      </trkpt>
      <trkpt lat="60.4798137" lon="22.2583652">
        <ele>62.6229</ele>
        <time>2013-10-12T10:57:37Z</time>
      </trkpt>
      <trkpt lat="60.4797865" lon="22.2579288">
        <ele>60.7003</ele>
        <time>2013-10-12T10:57:41Z</time>
      </trkpt>
      <trkpt lat="60.4797295" lon="22.2577226">
        <ele>60.2197</ele>
        <time>2013-10-12T10:57:43Z</time>
      </trkpt>
      <trkpt lat="60.479604" lon="22.2574695">
        <ele>54.9324</ele>
        <time>2013-10-12T10:57:46Z</time>
      </trkpt>
      <trkpt lat="60.4794713" lon="22.2569923">
        <ele>51.5679</ele>
        <time>2013-10-12T10:57:51Z</time>
      </trkpt>
      <trkpt lat="60.4793838" lon="22.2565433">
        <ele>44.358</ele>
        <time>2013-10-12T10:57:56Z</time>
      </trkpt>
      <trkpt lat="60.4793331" lon="22.2562377">
        <ele>41.9547</ele>
        <time>2013-10-12T10:57:59Z</time>
      </trkpt>
      <trkpt lat="60.4792047" lon="22.2554377">
        <ele>39.5513</ele>
        <time>2013-10-12T10:58:06Z</time>
      </trkpt>
      <trkpt lat="60.479112" lon="22.2549339">
        <ele>36.6675</ele>
        <time>2013-10-12T10:58:11Z</time>
      </trkpt>
      <trkpt lat="60.4791612" lon="22.2546144">
        <ele>35.2255</ele>
        <time>2013-10-12T10:58:15Z</time>
      </trkpt>
      <trkpt lat="60.4792017" lon="22.254593">
        <ele>34.2642</ele>
        <time>2013-10-12T10:58:16Z</time>
      </trkpt>
      <trkpt lat="60.4795528" lon="22.2543143">
        <ele>32.3416</ele>
        <time>2013-10-12T10:58:24Z</time>
      </trkpt>
      <trkpt lat="60.4795957" lon="22.2542838">
        <ele>31.8607</ele>
        <time>2013-10-12T10:58:25Z</time>
      </trkpt>
      <trkpt lat="60.4798606" lon="22.2540921">
        <ele>30.4188</ele>
        <time>2013-10-12T10:58:31Z</time>
      </trkpt>
      <trkpt lat="60.4799832" lon="22.2538384">
        <ele>32.8223</ele>
        <time>2013-10-12T10:58:35Z</time>
      </trkpt>
      <trkpt lat="60.4801243" lon="22.2536708">
        <ele>33.3029</ele>
        <time>2013-10-12T10:58:39Z</time>
      </trkpt>
      <trkpt lat="60.4801623" lon="22.2536358">
        <ele>33.3029</ele>
        <time>2013-10-12T10:58:40Z</time>
      </trkpt>
      <trkpt lat="60.4806193" lon="22.2532786">
        <ele>37.6287</ele>
        <time>2013-10-12T10:58:52Z</time>
      </trkpt>
      <trkpt lat="60.480883" lon="22.2531834">
        <ele>36.1868</ele>
        <time>2013-10-12T10:58:59Z</time>
      </trkpt>
      <trkpt lat="60.480952" lon="22.2531836">
        <ele>36.1868</ele>
        <time>2013-10-12T10:59:01Z</time>
      </trkpt>
      <trkpt lat="60.481101" lon="22.2533949">
        <ele>38.5901</ele>
        <time>2013-10-12T10:59:07Z</time>
      </trkpt>
      <trkpt lat="60.4811404" lon="22.2534518">
        <ele>39.0707</ele>
        <time>2013-10-12T10:59:09Z</time>
      </trkpt>
      <trkpt lat="60.4812758" lon="22.2533553">
        <ele>41.474</ele>
        <time>2013-10-12T10:59:15Z</time>
      </trkpt>
      <trkpt lat="60.481427" lon="22.2532021">
        <ele>42.916</ele>
        <time>2013-10-12T10:59:21Z</time>
      </trkpt>
      <trkpt lat="60.4815855" lon="22.2530039">
        <ele>41.9547</ele>
        <time>2013-10-12T10:59:25Z</time>
      </trkpt>
      <trkpt lat="60.4816863" lon="22.2527255">
        <ele>41.9547</ele>
        <time>2013-10-12T10:59:28Z</time>
      </trkpt>
      <trkpt lat="60.4818798" lon="22.2524298">
        <ele>41.474</ele>
        <time>2013-10-12T10:59:32Z</time>
      </trkpt>
      <trkpt lat="60.4822963" lon="22.2520357">
        <ele>43.3966</ele>
        <time>2013-10-12T10:59:39Z</time>
      </trkpt>
      <trkpt lat="60.4824885" lon="22.2516684">
        <ele>45.3192</ele>
        <time>2013-10-12T10:59:44Z</time>
      </trkpt>
      <trkpt lat="60.4826661" lon="22.2512311">
        <ele>44.358</ele>
        <time>2013-10-12T10:59:51Z</time>
      </trkpt>
      <trkpt lat="60.4828177" lon="22.2508125">
        <ele>43.3966</ele>
        <time>2013-10-12T10:59:56Z</time>
      </trkpt>
      <trkpt lat="60.4828433" lon="22.2504173">
        <ele>44.8386</ele>
        <time>2013-10-12T11:00:00Z</time>
      </trkpt>
      <trkpt lat="60.4828531" lon="22.250337">
        <ele>45.7999</ele>
        <time>2013-10-12T11:00:01Z</time>
      </trkpt>
      <trkpt lat="60.4829892" lon="22.2500248">
        <ele>48.2034</ele>
        <time>2013-10-12T11:00:08Z</time>
      </trkpt>
      <trkpt lat="60.4830849" lon="22.2498137">
        <ele>47.7225</ele>
        <time>2013-10-12T11:00:12Z</time>
      </trkpt>
      <trkpt lat="60.4832254" lon="22.2495306">
        <ele>46.2806</ele>
        <time>2013-10-12T11:00:17Z</time>
      </trkpt>
      <trkpt lat="60.4833051" lon="22.2493937">
        <ele>49.1646</ele>
        <time>2013-10-12T11:00:19Z</time>
      </trkpt>
      <trkpt lat="60.483436" lon="22.2491779">
        <ele>50.6066</ele>
        <time>2013-10-12T11:00:22Z</time>
      </trkpt>
      <trkpt lat="60.4835689" lon="22.2490793">
        <ele>51.5679</ele>
        <time>2013-10-12T11:00:25Z</time>
      </trkpt>
      <trkpt lat="60.4838447" lon="22.2491527">
        <ele>54.4518</ele>
        <time>2013-10-12T11:00:31Z</time>
      </trkpt>
      <trkpt lat="60.4840356" lon="22.2491335">
        <ele>53.4905</ele>
        <time>2013-10-12T11:00:35Z</time>
      </trkpt>
      <trkpt lat="60.4843315" lon="22.2489597">
        <ele>56.3745</ele>
        <time>2013-10-12T11:00:41Z</time>
      </trkpt>
      <trkpt lat="60.48454" lon="22.2488482">
        <ele>59.2584</ele>
        <time>2013-10-12T11:00:45Z</time>
      </trkpt>
      <trkpt lat="60.4846577" lon="22.2488587">
        <ele>59.2584</ele>
        <time>2013-10-12T11:00:47Z</time>
      </trkpt>
      <trkpt lat="60.4847918" lon="22.2490286">
        <ele>57.8165</ele>
        <time>2013-10-12T11:00:50Z</time>
      </trkpt>
      <trkpt lat="60.485006" lon="22.2491808">
        <ele>56.3745</ele>
        <time>2013-10-12T11:00:55Z</time>
      </trkpt>
      <trkpt lat="60.4850656" lon="22.2491711">
        <ele>56.3745</ele>
        <time>2013-10-12T11:00:57Z</time>
      </trkpt>
      <trkpt lat="60.4853181" lon="22.248885">
        <ele>52.0486</ele>
        <time>2013-10-12T11:01:04Z</time>
      </trkpt>
      <trkpt lat="60.4853955" lon="22.2487685">
        <ele>52.5292</ele>
        <time>2013-10-12T11:01:06Z</time>
      </trkpt>
      <trkpt lat="60.4855416" lon="22.248665">
        <ele>52.0486</ele>
        <time>2013-10-12T11:01:10Z</time>
      </trkpt>
      <trkpt lat="60.4857123" lon="22.2485539">
        <ele>53.0098</ele>
        <time>2013-10-12T11:01:16Z</time>
      </trkpt>
      <trkpt lat="60.4858735" lon="22.2485893">
        <ele>53.0098</ele>
        <time>2013-10-12T11:01:22Z</time>
      </trkpt>
      <trkpt lat="60.4860151" lon="22.2487094">
        <ele>53.4905</ele>
        <time>2013-10-12T11:01:27Z</time>
      </trkpt>
      <trkpt lat="60.4862065" lon="22.2489094">
        <ele>53.9712</ele>
        <time>2013-10-12T11:01:34Z</time>
      </trkpt>
      <trkpt lat="60.4863362" lon="22.2490256">
        <ele>54.9324</ele>
        <time>2013-10-12T11:01:39Z</time>
      </trkpt>
      <trkpt lat="60.4864766" lon="22.2491581">
        <ele>54.4518</ele>
        <time>2013-10-12T11:01:44Z</time>
      </trkpt>
      <trkpt lat="60.486645" lon="22.2493176">
        <ele>55.8938</ele>
        <time>2013-10-12T11:01:50Z</time>
      </trkpt>
      <trkpt lat="60.4868046" lon="22.2494656">
        <ele>56.3745</ele>
        <time>2013-10-12T11:01:57Z</time>
      </trkpt>
      <trkpt lat="60.4869946" lon="22.2493972">
        <ele>56.3745</ele>
        <time>2013-10-12T11:02:03Z</time>
      </trkpt>
      <trkpt lat="60.4872519" lon="22.2493253">
        <ele>56.3745</ele>
        <time>2013-10-12T11:02:10Z</time>
      </trkpt>
      <trkpt lat="60.4874021" lon="22.2493901">
        <ele>55.8938</ele>
        <time>2013-10-12T11:02:14Z</time>
      </trkpt>
      <trkpt lat="60.4877524" lon="22.2496321">
        <ele>55.8938</ele>
        <time>2013-10-12T11:02:19Z</time>
      </trkpt>
      <trkpt lat="60.4879658" lon="22.2498381">
        <ele>56.3745</ele>
        <time>2013-10-12T11:02:24Z</time>
      </trkpt>
      <trkpt lat="60.4880786" lon="22.2499277">
        <ele>56.8551</ele>
        <time>2013-10-12T11:02:27Z</time>
      </trkpt>
      <trkpt lat="60.4882061" lon="22.2499953">
        <ele>56.3745</ele>
        <time>2013-10-12T11:02:30Z</time>
      </trkpt>
      <trkpt lat="60.4884611" lon="22.2502615">
        <ele>54.4518</ele>
        <time>2013-10-12T11:02:35Z</time>
      </trkpt>
      <trkpt lat="60.4888366" lon="22.250485">
        <ele>50.126</ele>
        <time>2013-10-12T11:02:40Z</time>
      </trkpt>
      <trkpt lat="60.4889288" lon="22.2504746">
        <ele>49.6453</ele>
        <time>2013-10-12T11:02:41Z</time>
      </trkpt>
      <trkpt lat="60.4891983" lon="22.250254">
        <ele>48.2034</ele>
        <time>2013-10-12T11:02:45Z</time>
      </trkpt>
      <trkpt lat="60.4894608" lon="22.2501536">
        <ele>46.7612</ele>
        <time>2013-10-12T11:02:50Z</time>
      </trkpt>
      <trkpt lat="60.4895568" lon="22.2501273">
        <ele>46.7612</ele>
        <time>2013-10-12T11:02:52Z</time>
      </trkpt>
      <trkpt lat="60.4897597" lon="22.2498919">
        <ele>45.3192</ele>
        <time>2013-10-12T11:02:57Z</time>
      </trkpt>
      <trkpt lat="60.4900853" lon="22.2493123">
        <ele>45.3192</ele>
        <time>2013-10-12T11:03:05Z</time>
      </trkpt>
      <trkpt lat="60.4901209" lon="22.2492591">
        <ele>46.2806</ele>
        <time>2013-10-12T11:03:06Z</time>
      </trkpt>
      <trkpt lat="60.4902963" lon="22.2490491">
        <ele>49.6453</ele>
        <time>2013-10-12T11:03:12Z</time>
      </trkpt>
      <trkpt lat="60.4905669" lon="22.2488828">
        <ele>52.5292</ele>
        <time>2013-10-12T11:03:21Z</time>
      </trkpt>
      <trkpt lat="60.4907631" lon="22.2487888">
        <ele>53.0098</ele>
        <time>2013-10-12T11:03:27Z</time>
      </trkpt>
      <trkpt lat="60.4910245" lon="22.248687">
        <ele>51.5679</ele>
        <time>2013-10-12T11:03:33Z</time>
      </trkpt>
      <trkpt lat="60.4912481" lon="22.2484733">
        <ele>49.6453</ele>
        <time>2013-10-12T11:03:37Z</time>
      </trkpt>
      <trkpt lat="60.4914019" lon="22.2482686">
        <ele>49.6453</ele>
        <time>2013-10-12T11:03:39Z</time>
      </trkpt>
      <trkpt lat="60.4916416" lon="22.2476838">
        <ele>48.2034</ele>
        <time>2013-10-12T11:03:43Z</time>
      </trkpt>
      <trkpt lat="60.4917033" lon="22.2475223">
        <ele>47.2418</ele>
        <time>2013-10-12T11:03:44Z</time>
      </trkpt>
      <trkpt lat="60.4919294" lon="22.24678">
        <ele>46.7612</ele>
        <time>2013-10-12T11:03:49Z</time>
      </trkpt>
      <trkpt lat="60.4919712" lon="22.2466688">
        <ele>46.7612</ele>
        <time>2013-10-12T11:03:50Z</time>
      </trkpt>
      <trkpt lat="60.4920886" lon="22.2462184">
        <ele>46.7612</ele>
        <time>2013-10-12T11:03:54Z</time>
      </trkpt>
      <trkpt lat="60.4921131" lon="22.245911">
        <ele>45.7999</ele>
        <time>2013-10-12T11:03:57Z</time>
      </trkpt>
      <trkpt lat="60.492185" lon="22.2454139">
        <ele>45.3192</ele>
        <time>2013-10-12T11:04:01Z</time>
      </trkpt>
      <trkpt lat="60.4921881" lon="22.2451036">
        <ele>47.7225</ele>
        <time>2013-10-12T11:04:03Z</time>
      </trkpt>
      <trkpt lat="60.4920867" lon="22.24459">
        <ele>47.7225</ele>
        <time>2013-10-12T11:04:07Z</time>
      </trkpt>
      <trkpt lat="60.4919498" lon="22.2440402">
        <ele>51.0872</ele>
        <time>2013-10-12T11:04:13Z</time>
      </trkpt>
      <trkpt lat="60.4919569" lon="22.2438363">
        <ele>51.5679</ele>
        <time>2013-10-12T11:04:15Z</time>
      </trkpt>
      <trkpt lat="60.4919758" lon="22.2436547">
        <ele>51.5679</ele>
        <time>2013-10-12T11:04:17Z</time>
      </trkpt>
      <trkpt lat="60.4919768" lon="22.2434606">
        <ele>52.5292</ele>
        <time>2013-10-12T11:04:19Z</time>
      </trkpt>
      <trkpt lat="60.4920041" lon="22.2431487">
        <ele>49.6453</ele>
        <time>2013-10-12T11:04:22Z</time>
      </trkpt>
      <trkpt lat="60.4919724" lon="22.2427509">
        <ele>43.8773</ele>
        <time>2013-10-12T11:04:26Z</time>
      </trkpt>
      <trkpt lat="60.4918778" lon="22.242591">
        <ele>41.474</ele>
        <time>2013-10-12T11:04:28Z</time>
      </trkpt>
      <trkpt lat="60.4915404" lon="22.2419879">
        <ele>34.7449</ele>
        <time>2013-10-12T11:04:34Z</time>
      </trkpt>
      <trkpt lat="60.4914588" lon="22.2417928">
        <ele>32.8223</ele>
        <time>2013-10-12T11:04:36Z</time>
      </trkpt>
      <trkpt lat="60.4912288" lon="22.2412955">
        <ele>34.7449</ele>
        <time>2013-10-12T11:04:42Z</time>
      </trkpt>
      <trkpt lat="60.4910525" lon="22.2408055">
        <ele>37.1481</ele>
        <time>2013-10-12T11:04:49Z</time>
      </trkpt>
      <trkpt lat="60.490845" lon="22.2402012">
        <ele>37.1481</ele>
        <time>2013-10-12T11:04:56Z</time>
      </trkpt>
      <trkpt lat="60.4905922" lon="22.2392245">
        <ele>35.7061</ele>
        <time>2013-10-12T11:05:06Z</time>
      </trkpt>
      <trkpt lat="60.4904248" lon="22.2384081">
        <ele>34.2642</ele>
        <time>2013-10-12T11:05:14Z</time>
      </trkpt>
      <trkpt lat="60.4903869" lon="22.2381937">
        <ele>33.7834</ele>
        <time>2013-10-12T11:05:16Z</time>
      </trkpt>
      <trkpt lat="60.4903343" lon="22.2375418">
        <ele>33.3029</ele>
        <time>2013-10-12T11:05:22Z</time>
      </trkpt>
      <trkpt lat="60.490157" lon="22.2366616">
        <ele>32.3416</ele>
        <time>2013-10-12T11:05:31Z</time>
      </trkpt>
      <trkpt lat="60.4900762" lon="22.2362839">
        <ele>33.3029</ele>
        <time>2013-10-12T11:05:35Z</time>
      </trkpt>
      <trkpt lat="60.4899352" lon="22.23558">
        <ele>34.7449</ele>
        <time>2013-10-12T11:05:42Z</time>
      </trkpt>
      <trkpt lat="60.4898284" lon="22.2351739">
        <ele>35.7061</ele>
        <time>2013-10-12T11:05:46Z</time>
      </trkpt>
      <trkpt lat="60.4897948" lon="22.234873">
        <ele>35.2255</ele>
        <time>2013-10-12T11:05:49Z</time>
      </trkpt>
      <trkpt lat="60.4896979" lon="22.2344166">
        <ele>34.2642</ele>
        <time>2013-10-12T11:05:54Z</time>
      </trkpt>
      <trkpt lat="60.4895551" lon="22.2338887">
        <ele>36.6675</ele>
        <time>2013-10-12T11:06:00Z</time>
      </trkpt>
      <trkpt lat="60.4895047" lon="22.2336222">
        <ele>36.6675</ele>
        <time>2013-10-12T11:06:03Z</time>
      </trkpt>
      <trkpt lat="60.4894995" lon="22.2332055">
        <ele>33.7834</ele>
        <time>2013-10-12T11:06:07Z</time>
      </trkpt>
      <trkpt lat="60.4894521" lon="22.232559">
        <ele>32.8223</ele>
        <time>2013-10-12T11:06:12Z</time>
      </trkpt>
      <trkpt lat="60.4894484" lon="22.2320195">
        <ele>31.3801</ele>
        <time>2013-10-12T11:06:16Z</time>
      </trkpt>
      <trkpt lat="60.4894365" lon="22.2317182">
        <ele>31.3801</ele>
        <time>2013-10-12T11:06:19Z</time>
      </trkpt>
      <trkpt lat="60.4893024" lon="22.2312639">
        <ele>30.4188</ele>
        <time>2013-10-12T11:06:24Z</time>
      </trkpt>
      <trkpt lat="60.4891799" lon="22.2311127">
        <ele>30.8995</ele>
        <time>2013-10-12T11:06:27Z</time>
      </trkpt>
      <trkpt lat="60.4888055" lon="22.2306097">
        <ele>29.4575</ele>
        <time>2013-10-12T11:06:35Z</time>
      </trkpt>
      <trkpt lat="60.4886802" lon="22.2303517">
        <ele>31.3801</ele>
        <time>2013-10-12T11:06:38Z</time>
      </trkpt>
      <trkpt lat="60.4885209" lon="22.229884">
        <ele>31.3801</ele>
        <time>2013-10-12T11:06:43Z</time>
      </trkpt>
      <trkpt lat="60.4885523" lon="22.2295166">
        <ele>30.4188</ele>
        <time>2013-10-12T11:06:47Z</time>
      </trkpt>
      <trkpt lat="60.4885767" lon="22.2291502">
        <ele>28.9769</ele>
        <time>2013-10-12T11:06:51Z</time>
      </trkpt>
      <trkpt lat="60.4885604" lon="22.22905">
        <ele>28.9769</ele>
        <time>2013-10-12T11:06:52Z</time>
      </trkpt>
      <trkpt lat="60.4884036" lon="22.2283528">
        <ele>27.0543</ele>
        <time>2013-10-12T11:06:59Z</time>
      </trkpt>
      <trkpt lat="60.4882197" lon="22.2278917">
        <ele>26.5736</ele>
        <time>2013-10-12T11:07:04Z</time>
      </trkpt>
      <trkpt lat="60.4881839" lon="22.2277187">
        <ele>27.0543</ele>
        <time>2013-10-12T11:07:06Z</time>
      </trkpt>
      <trkpt lat="60.4880777" lon="22.227228">
        <ele>27.5349</ele>
        <time>2013-10-12T11:07:12Z</time>
      </trkpt>
      <trkpt lat="60.4879581" lon="22.2269601">
        <ele>29.4575</ele>
        <time>2013-10-12T11:07:18Z</time>
      </trkpt>
      <trkpt lat="60.487867" lon="22.2267443">
        <ele>29.9381</ele>
        <time>2013-10-12T11:07:22Z</time>
      </trkpt>
      <trkpt lat="60.4877504" lon="22.2263004">
        <ele>30.4188</ele>
        <time>2013-10-12T11:07:27Z</time>
      </trkpt>
      <trkpt lat="60.4876519" lon="22.2260411">
        <ele>30.8995</ele>
        <time>2013-10-12T11:07:30Z</time>
      </trkpt>
      <trkpt lat="60.4875177" lon="22.2255698">
        <ele>29.9381</ele>
        <time>2013-10-12T11:07:35Z</time>
      </trkpt>
      <trkpt lat="60.4873036" lon="22.225112">
        <ele>28.0155</ele>
        <time>2013-10-12T11:07:41Z</time>
      </trkpt>
      <trkpt lat="60.4871883" lon="22.2249079">
        <ele>27.5349</ele>
        <time>2013-10-12T11:07:44Z</time>
      </trkpt>
      <trkpt lat="60.4870588" lon="22.2244361">
        <ele>26.5736</ele>
        <time>2013-10-12T11:07:49Z</time>
      </trkpt>
      <trkpt lat="60.486819" lon="22.2237562">
        <ele>27.5349</ele>
        <time>2013-10-12T11:07:57Z</time>
      </trkpt>
      <trkpt lat="60.4865627" lon="22.2231135">
        <ele>27.5349</ele>
        <time>2013-10-12T11:08:05Z</time>
      </trkpt>
      <trkpt lat="60.4864251" lon="22.2228472">
        <ele>28.4962</ele>
        <time>2013-10-12T11:08:09Z</time>
      </trkpt>
      <trkpt lat="60.4862058" lon="22.2224175">
        <ele>30.4188</ele>
        <time>2013-10-12T11:08:16Z</time>
      </trkpt>
      <trkpt lat="60.486143" lon="22.2220247">
        <ele>35.7061</ele>
        <time>2013-10-12T11:08:21Z</time>
      </trkpt>
      <trkpt lat="60.4862412" lon="22.2218076">
        <ele>34.7449</ele>
        <time>2013-10-12T11:08:25Z</time>
      </trkpt>
      <trkpt lat="60.4863171" lon="22.2217294">
        <ele>33.3029</ele>
        <time>2013-10-12T11:08:27Z</time>
      </trkpt>
      <trkpt lat="60.4863926" lon="22.2216538">
        <ele>32.3416</ele>
        <time>2013-10-12T11:08:29Z</time>
      </trkpt>
      <trkpt lat="60.4864758" lon="22.2215804">
        <ele>32.8223</ele>
        <time>2013-10-12T11:08:31Z</time>
      </trkpt>
      <trkpt lat="60.4866335" lon="22.2214852">
        <ele>30.8995</ele>
        <time>2013-10-12T11:08:35Z</time>
      </trkpt>
      <trkpt lat="60.4868469" lon="22.2212057">
        <ele>30.8995</ele>
        <time>2013-10-12T11:08:40Z</time>
      </trkpt>
      <trkpt lat="60.4870303" lon="22.2209354">
        <ele>31.3801</ele>
        <time>2013-10-12T11:08:45Z</time>
      </trkpt>
      <trkpt lat="60.4871453" lon="22.2207754">
        <ele>34.2642</ele>
        <time>2013-10-12T11:08:49Z</time>
      </trkpt>
      <trkpt lat="60.4873412" lon="22.2204495">
        <ele>35.7061</ele>
        <time>2013-10-12T11:08:56Z</time>
      </trkpt>
      <trkpt lat="60.4875115" lon="22.2201339">
        <ele>36.6675</ele>
        <time>2013-10-12T11:09:02Z</time>
      </trkpt>
      <trkpt lat="60.487698" lon="22.2197504">
        <ele>38.1094</ele>
        <time>2013-10-12T11:09:08Z</time>
      </trkpt>
      <trkpt lat="60.4878392" lon="22.2194298">
        <ele>35.7061</ele>
        <time>2013-10-12T11:09:14Z</time>
      </trkpt>
      <trkpt lat="60.4878721" lon="22.2193341">
        <ele>35.7061</ele>
        <time>2013-10-12T11:09:15Z</time>
      </trkpt>
      <trkpt lat="60.4879563" lon="22.2186725">
        <ele>31.3801</ele>
        <time>2013-10-12T11:09:19Z</time>
      </trkpt>
      <trkpt lat="60.488027" lon="22.218107">
        <ele>29.9381</ele>
        <time>2013-10-12T11:09:23Z</time>
      </trkpt>
      <trkpt lat="60.4881022" lon="22.2174534">
        <ele>26.5736</ele>
        <time>2013-10-12T11:09:28Z</time>
      </trkpt>
      <trkpt lat="60.4881724" lon="22.2168789">
        <ele>24.651</ele>
        <time>2013-10-12T11:09:33Z</time>
      </trkpt>
      <trkpt lat="60.4881827" lon="22.2167802">
        <ele>23.6896</ele>
        <time>2013-10-12T11:09:34Z</time>
      </trkpt>
      <trkpt lat="60.4881092" lon="22.2163104">
        <ele>24.651</ele>
        <time>2013-10-12T11:09:39Z</time>
      </trkpt>
      <trkpt lat="60.487938" lon="22.2161505">
        <ele>24.1703</ele>
        <time>2013-10-12T11:09:43Z</time>
      </trkpt>
      <trkpt lat="60.4876426" lon="22.2160127">
        <ele>20.325</ele>
        <time>2013-10-12T11:09:49Z</time>
      </trkpt>
      <trkpt lat="60.4874245" lon="22.2156164">
        <ele>24.651</ele>
        <time>2013-10-12T11:09:55Z</time>
      </trkpt>
      <trkpt lat="60.4872273" lon="22.2150668">
        <ele>31.3801</ele>
        <time>2013-10-12T11:10:01Z</time>
      </trkpt>
      <trkpt lat="60.4871132" lon="22.2145051">
        <ele>33.7834</ele>
        <time>2013-10-12T11:10:06Z</time>
      </trkpt>
      <trkpt lat="60.4871002" lon="22.214399">
        <ele>33.3029</ele>
        <time>2013-10-12T11:10:07Z</time>
      </trkpt>
      <trkpt lat="60.48708" lon="22.2140467">
        <ele>33.3029</ele>
        <time>2013-10-12T11:10:11Z</time>
      </trkpt>
      <trkpt lat="60.4871609" lon="22.2136302">
        <ele>29.4575</ele>
        <time>2013-10-12T11:10:16Z</time>
      </trkpt>
      <trkpt lat="60.4872815" lon="22.2129036">
        <ele>28.4962</ele>
        <time>2013-10-12T11:10:23Z</time>
      </trkpt>
      <trkpt lat="60.487387" lon="22.2123606">
        <ele>30.4188</ele>
        <time>2013-10-12T11:10:28Z</time>
      </trkpt>
      <trkpt lat="60.4873991" lon="22.2122795">
        <ele>29.4575</ele>
        <time>2013-10-12T11:10:29Z</time>
      </trkpt>
      <trkpt lat="60.4874362" lon="22.2119386">
        <ele>29.4575</ele>
        <time>2013-10-12T11:10:33Z</time>
      </trkpt>
      <trkpt lat="60.4875202" lon="22.2112922">
        <ele>36.6675</ele>
        <time>2013-10-12T11:10:39Z</time>
      </trkpt>
      <trkpt lat="60.4875386" lon="22.2111703">
        <ele>37.1481</ele>
        <time>2013-10-12T11:10:40Z</time>
      </trkpt>
      <trkpt lat="60.4875607" lon="22.2109331">
        <ele>37.1481</ele>
        <time>2013-10-12T11:10:42Z</time>
      </trkpt>
      <trkpt lat="60.4874932" lon="22.2103338">
        <ele>32.8223</ele>
        <time>2013-10-12T11:10:47Z</time>
      </trkpt>
      <trkpt lat="60.4874191" lon="22.2097794">
        <ele>28.9769</ele>
        <time>2013-10-12T11:10:51Z</time>
      </trkpt>
      <trkpt lat="60.4874783" lon="22.2095561">
        <ele>27.0543</ele>
        <time>2013-10-12T11:10:55Z</time>
      </trkpt>
      <trkpt lat="60.4874932" lon="22.2095193">
        <ele>26.5736</ele>
        <time>2013-10-12T11:10:56Z</time>
      </trkpt>
    </trkseg>
  </trk>
</gpx>